METAR Data
IDs: Format: Raw Decoded Include TAF

Data at: 0244 UTC 23 Apr 2021

YPLM 230230Z AUTO 04008KT 9999 // NCD 29/20 Q1016 RF00.0/000.0
YPLM 230200Z AUTO 03004KT 360V060 9999 // NCD 30/19 Q1016
YPLM 230130Z AUTO 00000KT 9999 // NCD 29/18 Q1016 RF00.0/000.0
YPLM 230100Z AUTO 04002KT 9999 // NCD 28/21 Q1016
YPLM 230030Z AUTO 00000KT 9999 // NCD 26/21 Q1016 RF00.0/000.0
YPLM 230000Z AUTO 00000KT 9999 // NCD 24/21 Q1015
YPLM 222330Z AUTO 00000KT 9999 // NCD 20/18 Q1015 RF00.0/000.0
YPLM 222300Z AUTO 22001KT 9999 // NCD 18/16 Q1015
YPLM 222230Z AUTO 24002KT 9999 // NCD 18/16 Q1015 RF00.0/000.0
YPLM 222200Z AUTO 00000KT 9999 // NCD 18/16 Q1015
YPLM 222130Z AUTO 00000KT 9999 // NCD 18/16 Q1014 RF00.0/000.0
YPLM 222100Z AUTO 00000KT 9999 // NCD 18/16 Q1014
YPLM 222030Z AUTO 20005KT 9999 // NCD 18/16 Q1014 RF00.0/000.0
YPLM 222000Z AUTO 20006KT 9999 // NCD 18/16 Q1014
YPLM 221930Z AUTO 23003KT 9999 // NCD 19/16 Q1014 RF00.0/000.0
YPLM 221900Z AUTO 24003KT 9999 // NCD 19/16 Q1014
YPLM 221830Z AUTO 23004KT 9999 // NCD 19/16 Q1014 RF00.0/000.0
YPLM 221800Z AUTO 20006KT 9999 // NCD 18/16 Q1015
YPLM 221730Z AUTO 18006KT 9999 // NCD 18/16 Q1015 RF00.0/000.0
YPLM 221700Z AUTO 19006KT 9999 // NCD 19/16 Q1015
YPLM 221630Z AUTO 19007KT 9999 // NCD 19/16 Q1015 RF00.0/000.0
YPLM 221600Z AUTO 18007KT 9999 // NCD 19/15 Q1015
YPLM 221530Z AUTO 18005KT 9999 // NCD 19/15 Q1015 RF00.0/000.0
YPLM 221500Z AUTO 19007KT 9999 // NCD 19/15 Q1016
YPLM 221430Z AUTO 19008KT 9999 // NCD 20/15 Q1016 RF00.0/000.0
YPLM 221400Z AUTO 20007KT 9999 // NCD 19/14 Q1016
YPLM 221330Z AUTO 20004KT 9999 // NCD 20/14 Q1016 RF00.0/000.0
YPLM 221300Z AUTO 30004KT 9999 // NCD 24/14 Q1016
YPLM 221230Z AUTO 30004KT 9999 // NCD 24/13 Q1016 RF00.0/000.0
YPLM 221200Z AUTO 31004KT 9999 // NCD 25/12 Q1015
YPLM 221130Z AUTO 31001KT 9999 // NCD 25/13 Q1015 RF00.0/000.0
YPLM 221100Z AUTO 00000KT 9999 // NCD 27/17 Q1015
YPLM 221030Z AUTO 33001KT 9999 // NCD 26/16 Q1014 RF00.0/000.0
YPLM 221000Z AUTO 01005KT 9999 // NCD 28/16 Q1014
YPLM 220930Z AUTO 36008KT 9999 // NCD 30/12 Q1014 RF00.0/000.0
YPLM 220900Z AUTO 36009KT 9999 // NCD 30/10 Q1014
YPLM 220830Z AUTO 35010KT 9999 // NCD 31/08 Q1014 RF00.0/000.0
YPLM 220800Z AUTO 01010KT 9999 // NCD 31/11 Q1014
YPLM 220730Z AUTO 02010KT 9999 // NCD 30/12 Q1014 RF00.0/000.0
YPLM 220700Z AUTO 01009KT 9999 // NCD 32/09 Q1014
YPLM 220630Z AUTO 02009KT 9999 // NCD 31/07 Q1014 RF00.0/000.0
YPLM 220600Z AUTO 04010KT 9999 // NCD 31/10 Q1014
YPLM 220530Z AUTO 04009KT 9999 // NCD 31/17 Q1015 RF00.0/000.0
YPLM 220500Z AUTO 05007KT 9999 // NCD 30/18 Q1015
YPLM 220430Z AUTO 05005KT 9999 // NCD 29/21 Q1016 RF00.0/000.0
YPLM 220400Z AUTO 07007KT 9999 // NCD 28/21 Q1016
YPLM 220330Z AUTO 07008KT 9999 // NCD 28/22 Q1016 RF00.0/000.0
YPLM 220300Z AUTO 08004KT 030V190 9999 // NCD 28/22 Q1016
YPLM 220230Z AUTO 09007KT 9999 // NCD 28/22 Q1017 RF00.0/000.0
YPLM 220200Z AUTO 08011KT 020V090 9999 // NCD 27/22 Q1017
YPLM 220130Z AUTO 08014KT 070V130 9999 // NCD 27/20 Q1016 RF00.0/000.0
YPLM 220100Z AUTO 00000KT 9999 // NCD 28/21 Q1016
YPLM 220030Z AUTO 00000KT 9999 // NCD 26/23 Q1016 RF00.0/000.0
YPLM 220000Z AUTO 00000KT 9999 // NCD 24/22 Q1015
YPLM 212330Z AUTO 00000KT 9999 // NCD 21/20 Q1015 RF00.0/000.0
YPLM 212300Z AUTO 12004KT 9999 // NCD 20/19 Q1015
YPLM 212230Z AUTO 00000KT 9999 // NCD 20/19 Q1015 RF00.0/000.0
YPLM 212200Z AUTO 00000KT 9999 // NCD 20/19 Q1014
YPLM 212130Z AUTO 00000KT 9999 // NCD 21/20 Q1014 RF00.0/000.0
YPLM 212100Z AUTO 13003KT 9999 // NCD 21/20 Q1014
YPLM 212030Z AUTO 15005KT 9999 // NCD 21/19 Q1014 RF00.0/000.0
YPLM 212000Z AUTO 18004KT 9999 // NCD 21/20 Q1014
YPLM 211930Z AUTO 00000KT 9999 // NCD 21/20 Q1014 RF00.0/000.0
YPLM 211900Z AUTO 25007KT 9999 // NCD 23/21 Q1014
YPLM 211830Z AUTO 24006KT 9999 // NCD 22/20 Q1014 RF00.0/000.0
YPLM 211800Z AUTO 23006KT 9999 // NCD 21/19 Q1014
YPLM 211730Z AUTO 24003KT 9999 // NCD 21/20 Q1015 RF00.0/000.0
YPLM 211700Z AUTO 23004KT 9999 // NCD 21/20 Q1015
YPLM 211630Z AUTO 24006KT 9999 // NCD 22/20 Q1016 RF00.0/000.0
YPLM 211600Z AUTO 19007KT 9999 // NCD 21/20 Q1016
YPLM 211530Z AUTO 19007KT 9999 // NCD 21/19 Q1016 RF00.0/000.0
YPLM 211500Z AUTO 15006KT 9999 // NCD 21/19 Q1016